Terminal Aerodrome Forecast
Issued by NWS

Current Version | Previous Version | Graphics & Text | Print | Product List | Glossary On
Versions: 1 2 3 4 5 6 7 8 9 10 11 12 13 14 15 16 17 18 19
000
FTUS41 KILN 272300
TAFLUK
TAF
KLUK 272340Z 2800/2824 20007KT P6SM BKN200
     FM280900 21010KT P6SM SCT050 BKN100
     FM281500 22011G20KT P6SM -SHRA VCTS OVC040CB
     FM281800 25011G20KT P6SM VCSH OVC025
     FM282200 26010KT P6SM SCT025 BKN100=

USA.gov is the U.S. government's official web portal to all federal, state and local government web resources and services.